createdAt,value
2022-12-16T00:00:43.365Z,99892.56
2022-12-16T00:01:48.413Z,99890.84
2022-12-16T00:02:52.469Z,99899.34
2022-12-16T00:03:56.395Z,99901.96
2022-12-16T00:04:59.077Z,99898.58
2022-12-16T00:06:00.965Z,99897.75
2022-12-16T00:07:02.640Z,99888.39
2022-12-16T00:08:06.142Z,99888.39
2022-12-16T00:09:08.000Z,99903.73
2022-12-16T00:10:10.513Z,99900.31
2022-12-16T00:11:13.040Z,99905.45
2022-12-16T00:12:14.840Z,99903.75
2022-12-16T00:13:16.620Z,99911.45
2022-12-16T00:14:18.472Z,99908.03
2022-12-16T00:15:20.154Z,99911.45
2022-12-16T00:16:21.994Z,99908.91
2022-12-16T00:17:24.078Z,99920.05
2022-12-16T00:18:26.086Z,99919.18
2022-12-16T00:19:27.978Z,99918.31
2022-12-16T00:20:31.015Z,99919.15
2022-12-16T00:21:32.955Z,99914.03
2022-12-16T00:22:35.847Z,99915.71
2022-12-16T00:23:38.309Z,99914.83
2022-12-16T00:24:41.290Z,99910.59
2022-12-16T00:25:45.093Z,99912.31
2022-12-16T00:26:47.411Z,99912.31
2022-12-16T00:27:49.732Z,99911.48
2022-12-16T00:28:53.462Z,99917.45
2022-12-16T00:29:56.804Z,99914.08
2022-12-16T00:30:58.942Z,99911.54
2022-12-16T00:32:01.542Z,99918.36
2022-12-16T00:33:04.861Z,99914.08
2022-12-16T00:34:06.794Z,99917.45
2022-12-16T00:35:09.275Z,99908.03
2022-12-16T00:36:12.154Z,99913.95
2022-12-16T00:37:14.135Z,99913.15
2022-12-16T00:38:16.377Z,99911.42
2022-12-16T00:39:18.705Z,99908.01
2022-12-16T00:40:20.648Z,99903.73
2022-12-16T00:41:22.523Z,99905.41
2022-12-16T00:42:24.258Z,99906.25
2022-12-16T00:43:26.422Z,99914.76
2022-12-16T00:44:28.219Z,99910.47
2022-12-16T00:45:30.795Z,99904.49
2022-12-16T00:46:32.963Z,99907.05
2022-12-16T00:47:36.007Z,99905.28
2022-12-16T00:48:38.569Z,99909.55
2022-12-16T00:49:41.138Z,99907.88
2022-12-16T00:50:55.214Z,99908.73
2022-12-16T00:51:58.267Z,99910.41
2022-12-16T00:53:00.410Z,99920.62
2022-12-16T00:54:02.579Z,99914.64
2022-12-16T00:55:05.373Z,99915.45
2022-12-16T00:56:11.144Z,99920.55
2022-12-16T00:57:14.068Z,99917.20
2022-12-16T00:58:16.292Z,99918.88
2022-12-16T00:59:17.994Z,99924.77
2022-12-16T01:00:20.323Z,99915.33
2022-12-16T01:01:22.360Z,99915.33
2022-12-16T01:02:26.023Z,99910.29
2022-12-16T01:03:28.282Z,99915.46
2022-12-16T01:04:30.256Z,99920.62
2022-12-16T01:05:31.990Z,99912.93
2022-12-16T01:06:34.412Z,99914.62
2022-12-16T01:07:36.413Z,99917.98
2022-12-16T01:08:38.690Z,99917.13
2022-12-16T01:09:40.860Z,99917.13
2022-12-16T01:10:44.661Z,99907.78
2022-12-16T01:11:47.135Z,99924.09
2022-12-16T01:12:49.114Z,99914.74
2022-12-16T01:13:52.539Z,99908.73
2022-12-16T01:14:56.275Z,99915.59
2022-12-16T01:16:02.359Z,99913.86
2022-12-16T01:17:04.366Z,99911.33
2022-12-16T01:18:06.697Z,99908.77
2022-12-16T01:19:09.778Z,99915.63
2022-12-16T01:20:12.220Z,99910.52
2022-12-16T01:21:15.141Z,99912.18
2022-12-16T01:22:17.248Z,99915.63
2022-12-16T01:23:19.192Z,99910.53
2022-12-16T01:24:20.998Z,99916.51
2022-12-16T01:25:22.966Z,99926.02
2022-12-16T01:26:24.932Z,99928.53
2022-12-16T01:27:28.595Z,99926.03
2022-12-16T01:28:30.731Z,99929.45
2022-12-16T01:29:32.556Z,99940.57
2022-12-16T01:30:34.909Z,99944.84
2022-12-16T01:31:36.707Z,99949.95
2022-12-16T01:32:38.762Z,99957.66
2022-12-16T01:33:44.872Z,99957.66
2022-12-16T01:34:54.882Z,99949.11
2022-12-16T01:36:03.883Z,99948.23
2022-12-16T01:37:05.962Z,99948.21
2022-12-16T01:38:07.933Z,99941.34
2022-12-16T01:39:10.925Z,99948.18
2022-12-16T01:40:19.872Z,99956.73
2022-12-16T01:41:21.909Z,99956.73
2022-12-16T01:42:23.831Z,99966.15
2022-12-16T01:43:29.899Z,99961.91
2022-12-16T01:44:34.878Z,99965.30
2022-12-16T01:45:40.055Z,99962.73
2022-12-16T01:46:45.332Z,99955.03
2022-12-16T01:47:47.909Z,99967.83
2022-12-16T01:48:59.529Z,99964.39
2022-12-16T01:50:08.456Z,99964.36
2022-12-16T01:51:33.925Z,99966.01
2022-12-16T01:52:39.438Z,99971.91
2022-12-16T01:53:44.220Z,99972.77
2022-12-16T01:55:01.512Z,99970.23
2022-12-16T06:20:26.562Z,100088.17
2022-12-16T06:21:28.603Z,100087.31
2022-12-16T06:22:30.382Z,100088.17
2022-12-16T06:23:32.376Z,100088.17
2022-12-16T06:24:34.305Z,100094.17
2022-12-16T06:25:36.134Z,100095.91
2022-12-16T06:26:38.038Z,100096.77
2022-12-16T06:27:40.493Z,100087.38
2022-12-16T06:28:45.869Z,100083.11
2022-12-16T06:29:46.628Z,100086.51
2022-12-16T06:30:49.751Z,100083.09
2022-12-16T06:31:51.836Z,100086.48
2022-12-16T06:32:53.888Z,100099.27
2022-12-16T06:33:55.845Z,100096.63
2022-12-16T06:34:57.706Z,100096.63
2022-12-16T06:35:59.539Z,100102.59
2022-12-16T06:37:01.401Z,100102.55
2022-12-16T06:38:03.472Z,100098.27
2022-12-16T06:39:06.397Z,100103.37
2022-12-16T06:40:10.647Z,100098.20
2022-12-16T06:41:12.630Z,100096.46
2022-12-16T06:42:14.320Z,100097.31
2022-12-16T06:43:16.198Z,100099.89
2022-12-16T06:44:18.489Z,100103.43
2022-12-16T06:45:20.296Z,100096.55
2022-12-16T06:46:22.221Z,100099.97
2022-12-16T06:47:23.999Z,100104.25
2022-12-16T06:48:26.174Z,100090.54
2022-12-16T06:49:28.016Z,100092.25
2022-12-16T06:50:30.037Z,100092.25
2022-12-16T06:51:31.804Z,100084.55
2022-12-16T06:52:34.079Z,100093.11
2022-12-16T06:53:36.353Z,100095.66
2022-12-16T06:54:38.241Z,100086.23
2022-12-16T06:55:39.986Z,100095.59
2022-12-16T06:56:41.821Z,100092.13
2022-12-16T06:57:43.613Z,100093.86
2022-12-16T06:58:46.487Z,100093.84
2022-12-16T06:59:48.336Z,100093.00
2022-12-16T07:00:50.590Z,100093.84
2022-12-16T07:01:52.635Z,100097.25
2022-12-16T07:02:54.766Z,100104.05
2022-12-16T07:03:56.772Z,100103.20
2022-12-16T07:04:58.748Z,100110.86
2022-12-16T07:06:00.555Z,100108.41
2022-12-16T07:07:02.476Z,100118.70
2022-12-16T07:08:04.362Z,100112.72
2022-12-16T07:09:06.787Z,100115.28
2022-12-16T07:10:09.215Z,100113.57
2022-12-16T07:11:16.481Z,100121.29
2022-12-16T07:12:14.999Z,100120.48
2022-12-16T07:13:16.935Z,100121.34
